Time,TemperatureF,DewpointF,PressureIn,WindDirection,WindDirectionDegrees,WindSpeedMPH,WindSpeedGustMPH,Humidity,HourlyPrecipIn,Conditions,Clouds,dailyrainin,SoftwareType,DateUTC
2013-11-07 00:23:00,43.0,42.0,-100.00,NW,310,10.0,14.0,96,0.00,,,-99.99,,2013-11-07 05:23:00,
2013-11-07 00:54:00,42.0,42.0,-100.00,WNW,295,10.0,12.0,96,0.00,,,-99.99,,2013-11-07 05:54:00,
2013-11-07 01:23:00,42.0,41.0,-100.00,WNW,295,7.0,9.0,95,0.00,,,-99.99,,2013-11-07 06:23:00,
2013-11-07 01:52:00,43.0,42.0,-100.00,WNW,300,11.0,13.0,95,0.00,,,-99.99,,2013-11-07 06:52:00,
2013-11-07 02:02:00,43.0,42.0,-100.00,WNW,300,11.0,13.0,95,0.00,,,-99.99,,2013-11-07 07:02:00,
2013-11-07 02:22:00,43.0,41.0,-100.00,WNW,300,10.0,12.0,93,0.00,,,-99.99,,2013-11-07 07:22:00,
2013-11-07 02:52:00,42.0,41.0,-100.00,WNW,295,8.0,13.0,93,0.00,,,-99.99,,2013-11-07 07:52:00,
2013-11-07 03:22:00,42.0,40.0,-100.00,WNW,295,9.0,13.0,93,0.00,,,-99.99,,2013-11-07 08:22:00,
2013-11-07 03:52:00,42.0,40.0,-100.00,WNW,285,8.0,12.0,93,0.00,,,-99.99,,2013-11-07 08:52:00,
2013-11-07 04:11:00,40.0,39.0,-100.00,WNW,295,7.0,9.0,94,0.00,,,-99.99,,2013-11-07 09:11:00,
2013-11-07 04:22:00,40.0,38.0,-100.00,WNW,290,7.0,10.0,93,0.00,,,-99.99,,2013-11-07 09:22:00,
2013-11-07 04:42:00,40.0,39.0,-100.00,WNW,295,7.0,9.0,94,0.00,,,-99.99,,2013-11-07 09:42:00,
2013-11-07 04:53:00,40.0,39.0,-100.00,WNW,295,7.0,9.0,94,0.00,,,-99.99,,2013-11-07 09:53:00,
2013-11-07 05:03:00,40.0,39.0,-100.00,WNW,295,7.0,9.0,94,0.00,,,-99.99,,2013-11-07 10:03:00,
2013-11-07 05:23:00,41.0,40.0,-100.00,WNW,300,9.0,11.0,95,0.00,,,-99.99,,2013-11-07 10:23:00,
2013-11-07 05:53:00,40.0,38.0,-100.00,NW,310,7.0,16.0,92,0.00,,,-99.99,,2013-11-07 10:53:00,
2013-11-07 06:02:00,40.0,38.0,-100.00,NW,310,7.0,16.0,92,0.00,,,-99.99,,2013-11-07 11:02:00,
2013-11-07 06:12:00,40.0,38.0,-100.00,NW,310,7.0,16.0,92,0.00,,,-99.99,,2013-11-07 11:12:00,
2013-11-07 06:22:00,40.0,35.0,-100.00,NW,310,10.0,16.0,83,0.00,,,-99.99,,2013-11-07 11:22:00,
2013-11-07 06:43:00,40.0,35.0,-100.00,WNW,300,11.0,14.0,83,0.00,,,-99.99,,2013-11-07 11:43:00,
2013-11-07 06:52:00,39.0,31.0,-100.00,WNW,300,14.0,24.0,73,0.00,,,-99.99,,2013-11-07 11:52:00,
2013-11-07 07:22:00,37.0,28.0,-100.00,NW,305,9.0,16.0,70,0.00,,,-99.99,,2013-11-07 12:22:00,
2013-11-07 07:52:00,35.0,28.0,-100.00,WNW,295,6.0,8.0,76,0.00,,,-99.99,,2013-11-07 12:52:00,
2013-11-07 08:21:00,37.0,30.0,-100.00,West,280,5.0,7.0,77,0.00,,,-99.99,,2013-11-07 13:21:00,
2013-11-07 08:52:00,39.0,31.0,-100.00,West,275,7.0,9.0,72,0.00,,,-99.99,,2013-11-07 13:52:00,
2013-11-07 09:22:00,40.0,31.0,-100.00,West,265,11.0,15.0,70,0.00,,,-99.99,,2013-11-07 14:22:00,
2013-11-07 09:52:00,41.0,31.0,-100.00,West,265,10.0,16.0,69,0.00,,,-99.99,,2013-11-07 14:52:00,
2013-11-07 10:22:00,42.0,32.0,-100.00,WNW,290,12.0,21.0,66,0.00,,,-99.99,,2013-11-07 15:22:00,
2013-11-07 10:53:00,44.0,33.0,-100.00,WNW,300,14.0,19.0,64,0.00,,,-99.99,,2013-11-07 15:53:00,
2013-11-07 11:23:00,43.0,31.0,-100.00,WNW,290,18.0,24.0,62,0.00,,,-99.99,,2013-11-07 16:23:00,
2013-11-07 11:52:00,44.0,30.0,-100.00,WNW,290,17.0,24.0,58,0.00,,,-99.99,,2013-11-07 16:52:00,
2013-11-07 12:12:00,44.0,30.0,-100.00,WNW,290,19.0,23.0,58,0.00,,,-99.99,,2013-11-07 17:12:00,
2013-11-07 12:22:00,45.0,31.0,-100.00,WNW,290,14.0,21.0,58,0.00,,,-99.99,,2013-11-07 17:22:00,
2013-11-07 12:33:00,45.0,31.0,-100.00,WNW,290,14.0,21.0,58,0.00,,,-99.99,,2013-11-07 17:33:00,
2013-11-07 13:23:00,45.0,29.0,-100.00,WNW,300,14.0,24.0,53,0.00,,,-99.99,,2013-11-07 18:23:00,
2013-11-07 13:52:00,46.0,30.0,-100.00,WNW,285,12.0,21.0,51,0.00,,,-99.99,,2013-11-07 18:52:00,
2013-11-07 14:11:00,46.0,29.0,-100.00,WNW,285,16.0,22.0,52,0.00,,,-99.99,,2013-11-07 19:11:00,
2013-11-07 14:21:00,46.0,29.0,-100.00,WNW,290,16.0,24.0,50,0.00,,,-99.99,,2013-11-07 19:21:00,
2013-11-07 14:52:00,47.0,28.0,-100.00,West,275,18.0,24.0,46,0.00,,,-99.99,,2013-11-07 19:52:00,
2013-11-07 15:22:00,49.0,28.0,-100.00,WNW,285,16.0,26.0,44,0.00,,,-99.99,,2013-11-07 20:22:00,
2013-11-07 15:52:00,47.0,28.0,-100.00,West,280,17.0,28.0,45,0.00,,,-99.99,,2013-11-07 20:52:00,
2013-11-07 16:22:00,45.0,28.0,-100.00,West,280,11.0,14.0,51,0.00,,,-99.99,,2013-11-07 21:22:00,
2013-11-07 16:53:00,46.0,27.0,-100.00,West,275,16.0,23.0,47,0.00,,,-99.99,,2013-11-07 21:53:00,
2013-11-07 17:23:00,43.0,27.0,-100.00,West,280,10.0,16.0,52,0.00,,,-99.99,,2013-11-07 22:23:00,
2013-11-07 17:53:00,42.0,28.0,-100.00,West,270,7.0,11.0,54,0.00,,,-99.99,,2013-11-07 22:53:00,
2013-11-07 18:22:00,42.0,29.0,-100.00,West,265,6.0,9.0,57,0.00,,,-99.99,,2013-11-07 23:22:00,
2013-11-07 18:34:00,42.0,29.0,-100.00,West,265,6.0,9.0,57,0.00,,,-99.99,,2013-11-07 23:34:00,
2013-11-07 18:53:00,42.0,30.0,-100.00,WNW,295,4.0,7.0,62,0.00,,,-99.99,,2013-11-07 23:53:00,
2013-11-07 19:12:00,41.0,31.0,-100.00,WNW,295,4.0,4.0,65,0.00,,,-99.99,,2013-11-08 00:12:00,
2013-11-07 19:22:00,41.0,31.0,-100.00,WNW,295,3.0,5.0,67,0.00,,,-99.99,,2013-11-08 00:22:00,
2013-11-07 19:52:00,42.0,32.0,-100.00,WNW,300,7.0,9.0,69,0.00,,,-99.99,,2013-11-08 00:52:00,
2013-11-07 20:22:00,42.0,33.0,-100.00,West,270,8.0,12.0,69,0.00,,,-99.99,,2013-11-08 01:22:00,
2013-11-07 20:52:00,42.0,32.0,-100.00,West,275,10.0,19.0,66,0.00,,,-99.99,,2013-11-08 01:52:00,
2013-11-07 21:22:00,41.0,33.0,-100.00,WNW,295,9.0,13.0,72,0.00,,,-99.99,,2013-11-08 02:22:00,
2013-11-07 21:52:00,39.0,35.0,-100.00,WNW,295,9.0,13.0,83,0.00,,,-99.99,,2013-11-08 02:52:00,
2013-11-07 22:22:00,39.0,36.0,-100.00,West,280,9.0,13.0,87,0.00,,,-99.99,,2013-11-08 03:22:00,
2013-11-07 22:55:00,39.0,35.0,-100.00,WNW,290,11.0,16.0,87,0.00,,,-99.99,,2013-11-08 03:55:00,
2013-11-07 23:05:00,39.0,35.0,-100.00,WNW,290,11.0,16.0,87,0.00,,,-99.99,,2013-11-08 04:05:00,
2013-11-07 23:23:00,39.0,35.0,-100.00,West,275,9.0,12.0,87,0.00,,,-99.99,,2013-11-08 04:23:00,
2013-11-07 23:54:00,37.0,34.0,-100.00,West,275,9.0,12.0,89,0.00,,,-99.99,,2013-11-08 04:54:00,